createdAt,value
2018-03-26T00:00:11.363Z,9.20
2018-03-26T00:02:06.330Z,9.19
2018-03-26T00:03:05.812Z,9.17
2018-03-26T00:05:01.737Z,9.21
2018-03-26T00:06:02.246Z,9.23
2018-03-26T00:07:56.155Z,9.09
2018-03-26T00:08:56.160Z,9.16
2018-03-26T00:10:49.616Z,9.26
2018-03-26T00:11:49.599Z,9.17
2018-03-26T00:13:44.084Z,9.17
2018-03-26T00:14:44.043Z,9.17
2018-03-26T00:16:38.993Z,9.16
2018-03-26T00:17:38.487Z,9.20
2018-03-26T00:19:33.448Z,9.21
2018-03-26T00:20:32.908Z,9.08
2018-03-26T00:22:27.361Z,9.16
2018-03-26T00:23:26.872Z,9.17
2018-03-26T00:25:24.297Z,9.19
2018-03-26T00:26:24.786Z,9.17
2018-03-26T00:28:32.256Z,9.19
2018-03-26T00:29:31.352Z,9.17
2018-03-26T00:31:25.797Z,9.20
2018-03-26T00:32:26.299Z,9.32
2018-03-26T00:34:20.210Z,9.37
2018-03-26T00:35:20.746Z,9.35
2018-03-26T00:37:14.651Z,9.24
2018-03-26T00:38:14.639Z,9.19
2018-03-26T00:40:08.109Z,9.26
2018-03-26T00:41:08.080Z,9.24
2018-03-26T00:43:02.492Z,9.26
2018-03-26T00:44:02.518Z,9.26
2018-03-26T00:45:58.465Z,9.12
2018-03-26T00:46:58.975Z,9.14
2018-03-26T00:48:52.924Z,9.17
2018-03-26T00:49:53.396Z,9.14
2018-03-26T00:51:49.227Z,9.26
2018-03-26T00:52:47.289Z,9.11
2018-03-26T00:54:43.774Z,9.23
2018-03-26T00:55:43.260Z,9.14
2018-03-26T00:57:37.695Z,9.19
2018-03-26T00:58:37.687Z,9.09
2018-03-26T01:00:32.126Z,9.16
2018-03-26T01:01:32.636Z,9.14
2018-03-26T01:03:28.052Z,9.20
2018-03-26T01:04:28.567Z,9.16
2018-03-26T01:06:24.022Z,9.21
2018-03-26T01:07:23.996Z,9.16
2018-03-26T01:09:18.958Z,9.20
2018-03-26T01:10:18.950Z,9.19
2018-03-26T01:12:14.332Z,9.17
2018-03-26T01:13:14.314Z,9.14
2018-03-26T01:15:11.273Z,9.16
2018-03-26T01:16:10.265Z,9.20
2018-03-26T01:18:03.703Z,9.14
2018-03-26T01:19:03.701Z,9.00
2018-03-26T01:20:58.157Z,9.03
2018-03-26T01:21:58.141Z,8.95
2018-03-26T01:23:53.094Z,8.82
2018-03-26T01:24:52.575Z,8.95
2018-03-26T01:26:48.510Z,8.85
2018-03-26T01:27:49.027Z,8.83
2018-03-26T01:29:42.978Z,8.67
2018-03-26T01:30:42.936Z,8.62
2018-03-26T01:32:37.408Z,8.57
2018-03-26T01:33:37.369Z,8.53
2018-03-26T01:35:32.806Z,8.44
2018-03-26T01:36:31.807Z,8.46
2018-03-26T01:38:25.235Z,8.36
2018-03-26T01:39:25.226Z,8.34
2018-03-26T01:41:19.688Z,8.34
2018-03-26T01:42:19.634Z,8.42
2018-03-26T01:44:14.091Z,8.42
2018-03-26T01:45:14.065Z,8.32
2018-03-26T01:47:08.501Z,8.31
2018-03-26T01:48:08.492Z,8.31
2018-03-26T01:50:03.433Z,8.35
2018-03-26T01:51:02.914Z,8.35
2018-03-26T01:52:57.859Z,8.43
2018-03-26T01:53:57.349Z,8.35
2018-03-26T01:55:50.775Z,8.28
2018-03-26T01:56:50.774Z,8.29
2018-03-26T01:58:44.174Z,8.32
2018-03-26T01:59:44.718Z,8.34
2018-03-26T02:01:38.589Z,8.31
2018-03-26T02:02:38.585Z,8.36
2018-03-26T02:04:33.551Z,8.32
2018-03-26T02:05:33.026Z,8.32
2018-03-26T02:07:27.981Z,8.24
2018-03-26T02:08:27.451Z,8.17
2018-03-26T02:10:21.904Z,8.25
2018-03-26T02:11:22.384Z,8.19
2018-03-26T02:13:17.341Z,8.16
2018-03-26T02:14:16.309Z,8.10
2018-03-26T02:16:10.753Z,8.17
2018-03-26T02:17:10.777Z,8.10
2018-03-26T02:19:05.227Z,8.11
2018-03-26T02:20:05.148Z,8.11
2018-03-26T02:21:59.612Z,8.21
2018-03-26T02:23:00.096Z,8.10
2018-03-26T02:24:55.560Z,8.09
2018-03-26T02:25:55.515Z,8.03
2018-03-26T02:27:48.936Z,8.06
2018-03-26T02:28:49.457Z,8.07
2018-03-26T02:30:42.376Z,8.04
2018-03-26T02:31:42.381Z,7.99
2018-03-26T02:33:36.807Z,7.89
2018-03-26T02:34:37.321Z,7.89
2018-03-26T02:36:31.772Z,7.91
2018-03-26T02:37:31.256Z,7.88
2018-03-26T02:39:25.662Z,7.85
2018-03-26T02:40:25.662Z,7.83
2018-03-26T02:42:21.638Z,7.82
2018-03-26T02:43:21.610Z,7.82
2018-03-26T02:45:16.065Z,7.83
2018-03-26T02:46:16.043Z,7.78
2018-03-26T02:48:10.998Z,7.78
2018-03-26T02:49:10.989Z,7.67
2018-03-26T02:51:05.457Z,7.70
2018-03-26T02:52:04.907Z,7.68
2018-03-26T02:53:59.843Z,7.58
2018-03-26T02:54:59.342Z,7.63
2018-03-26T02:56:54.285Z,7.67
2018-03-26T02:57:53.762Z,7.64
2018-03-26T02:59:48.186Z,7.71
2018-03-26T03:00:48.702Z,7.67
2018-03-26T03:02:44.629Z,7.59
2018-03-26T03:03:44.102Z,7.61
2018-03-26T03:05:37.570Z,7.49
2018-03-26T03:06:38.073Z,7.48
2018-03-26T03:08:32.496Z,7.61
2018-03-26T03:09:31.956Z,7.52
2018-03-26T03:11:26.900Z,7.56
2018-03-26T03:12:26.381Z,7.51
2018-03-26T03:14:20.817Z,7.56
2018-03-26T03:15:20.799Z,7.51
2018-03-26T03:17:15.244Z,7.51
2018-03-26T03:18:15.239Z,7.49
2018-03-26T03:20:10.180Z,7.55
2018-03-26T03:21:08.653Z,7.48
2018-03-26T03:23:03.094Z,7.47
2018-03-26T03:24:03.088Z,7.44
2018-03-26T03:25:56.520Z,7.45
2018-03-26T03:26:56.542Z,7.44
2018-03-26T03:28:50.932Z,7.41
2018-03-26T03:29:50.915Z,7.48
2018-03-26T03:31:44.385Z,7.49
2018-03-26T03:32:44.865Z,7.47
2018-03-26T03:34:39.286Z,7.47
2018-03-26T03:35:38.765Z,7.37
2018-03-26T03:37:35.727Z,7.39
2018-03-26T03:38:34.704Z,7.30
2018-03-26T03:40:30.159Z,7.36
2018-03-26T03:41:29.150Z,7.33
2018-03-26T03:43:24.111Z,7.30
2018-03-26T03:44:23.575Z,7.39
2018-03-26T03:46:18.021Z,7.41
2018-03-26T03:47:18.530Z,7.40
2018-03-26T03:49:14.461Z,7.39
2018-03-26T03:50:13.927Z,7.30
2018-03-26T03:52:08.345Z,7.37
2018-03-26T03:53:08.345Z,7.36
2018-03-26T03:55:04.285Z,7.31
2018-03-26T03:56:04.279Z,7.41
2018-03-26T03:57:57.743Z,7.37
2018-03-26T03:58:57.733Z,7.31
2018-03-26T04:00:54.186Z,7.31
2018-03-26T04:01:53.647Z,7.26
2018-03-26T04:03:49.615Z,7.30
2018-03-26T04:04:49.596Z,7.23
2018-03-26T04:06:45.565Z,7.31
2018-03-26T04:07:45.525Z,7.31
2018-03-26T04:09:40.476Z,7.34
2018-03-26T04:10:39.977Z,7.26
2018-03-26T04:12:35.896Z,7.23
2018-03-26T04:13:35.888Z,7.23
2018-03-26T04:15:30.838Z,7.23
2018-03-26T04:16:30.306Z,7.16
2018-03-26T04:18:26.287Z,7.23
2018-03-26T04:19:26.252Z,7.13
2018-03-26T04:21:23.694Z,7.16
2018-03-26T04:22:22.183Z,7.18
2018-03-26T04:24:18.153Z,7.04
2018-03-26T04:25:18.641Z,6.98
2018-03-26T04:27:13.564Z,7.00
2018-03-26T04:28:12.573Z,6.88
2018-03-26T04:30:09.025Z,6.83
2018-03-26T04:31:09.035Z,6.80
2018-03-26T04:33:01.958Z,6.90
2018-03-26T04:34:01.930Z,7.03
2018-03-26T04:35:58.390Z,7.00
2018-03-26T04:36:56.871Z,6.95
2018-03-26T04:38:50.817Z,7.03
2018-03-26T04:39:50.751Z,6.98
2018-03-26T04:41:46.720Z,6.97
2018-03-26T04:42:47.195Z,6.83
2018-03-26T04:44:40.630Z,6.98
2018-03-26T04:45:40.110Z,6.80
2018-03-26T04:47:35.059Z,6.90
2018-03-26T04:48:34.521Z,6.86
2018-03-26T04:50:30.476Z,6.85
2018-03-26T04:51:30.455Z,6.73
2018-03-26T04:53:25.902Z,6.79
2018-03-26T04:54:25.404Z,6.86
2018-03-26T04:56:19.867Z,6.79
2018-03-26T04:57:19.319Z,6.73
2018-03-26T04:59:14.288Z,6.73
2018-03-26T05:00:13.702Z,6.68
2018-03-26T05:02:08.173Z,6.68
2018-03-26T05:03:08.131Z,6.57
2018-03-26T05:05:03.584Z,6.60
2018-03-26T05:06:02.562Z,6.58
2018-03-26T05:07:57.011Z,6.67
2018-03-26T05:08:57.547Z,6.60
2018-03-26T05:10:53.447Z,6.67
2018-03-26T05:11:51.944Z,6.62
2018-03-26T05:13:45.804Z,6.60
2018-03-26T05:14:45.369Z,6.58
2018-03-26T05:16:38.282Z,6.60
2018-03-26T05:17:38.809Z,6.61
2018-03-26T05:19:34.719Z,6.46
2018-03-26T05:20:34.722Z,6.58
2018-03-26T05:22:29.658Z,6.52
2018-03-26T05:23:29.159Z,6.46
2018-03-26T05:25:24.084Z,6.46
2018-03-26T05:26:23.067Z,6.43
2018-03-26T05:28:20.020Z,6.43
2018-03-26T05:29:19.522Z,6.43
2018-03-26T05:31:12.503Z,6.42
2018-03-26T05:32:12.949Z,6.46
2018-03-26T05:34:06.894Z,6.34
2018-03-26T05:35:07.398Z,6.33
2018-03-26T05:37:07.337Z,6.40
2018-03-26T05:38:07.294Z,6.36
2018-03-26T05:40:03.750Z,6.36
2018-03-26T05:41:03.766Z,6.26
2018-03-26T05:42:59.215Z,6.29
2018-03-26T05:43:59.680Z,6.25
2018-03-26T05:45:55.611Z,6.20
2018-03-26T05:46:55.079Z,6.14
2018-03-26T05:48:50.026Z,6.13
2018-03-26T05:49:50.051Z,6.10
2018-03-26T05:51:44.418Z,6.09
2018-03-26T05:52:44.426Z,6.09
2018-03-26T05:54:41.349Z,6.03
2018-03-26T05:55:39.835Z,6.05
2018-03-26T05:57:33.796Z,6.13
2018-03-26T05:58:33.785Z,6.02
2018-03-26T06:00:28.225Z,6.06
2018-03-26T06:01:27.725Z,6.10
2018-03-26T06:03:23.663Z,6.17
2018-03-26T06:04:24.151Z,6.17
2018-03-26T06:06:20.095Z,6.00
2018-03-26T06:07:20.084Z,5.92
2018-03-26T06:09:15.004Z,6.07
2018-03-26T06:10:14.508Z,6.06
2018-03-26T06:12:08.901Z,6.00
2018-03-26T06:13:08.386Z,6.03
2018-03-26T06:15:02.842Z,6.05
2018-03-26T06:16:02.789Z,6.06
2018-03-26T06:18:03.237Z,5.91
2018-03-26T06:19:03.275Z,5.89
2018-03-26T06:20:59.190Z,5.95
2018-03-26T06:21:59.142Z,5.98
2018-03-26T06:23:55.105Z,6.06
2018-03-26T06:24:55.077Z,6.07
2018-03-26T06:26:51.510Z,6.06
2018-03-26T06:27:51.506Z,6.07
2018-03-26T06:29:46.427Z,6.05
2018-03-26T06:30:45.922Z,5.99
2018-03-26T06:32:41.852Z,6.05
2018-03-26T06:33:41.854Z,6.14
2018-03-26T06:35:34.767Z,6.07
2018-03-26T06:36:34.764Z,6.18
2018-03-26T06:38:29.701Z,6.20
2018-03-26T06:39:29.160Z,6.14
2018-03-26T06:41:23.605Z,6.24
2018-03-26T06:42:24.094Z,6.31
2018-03-26T06:44:17.067Z,6.24
2018-03-26T06:45:17.000Z,6.33
2018-03-26T06:47:12.465Z,6.40
2018-03-26T06:48:11.425Z,6.52
2018-03-26T06:50:06.378Z,6.55
2018-03-26T06:51:05.860Z,6.65
2018-03-26T06:53:01.804Z,6.72
2018-03-26T06:54:03.226Z,6.75
2018-03-26T06:55:57.220Z,6.73
2018-03-26T06:56:56.209Z,6.72
2018-03-26T06:58:52.084Z,6.76
2018-03-26T06:59:52.096Z,6.82
2018-03-26T07:01:48.041Z,6.86
2018-03-26T07:02:48.549Z,6.95
2018-03-26T07:04:45.478Z,6.91
2018-03-26T07:05:44.479Z,7.00
2018-03-26T07:07:40.921Z,7.00
2018-03-26T07:08:40.413Z,7.11
2018-03-26T07:10:36.268Z,7.21
2018-03-26T07:11:34.299Z,7.33
2018-03-26T07:13:27.789Z,7.26
2018-03-26T07:14:28.763Z,7.26
2018-03-26T07:16:21.244Z,7.26
2018-03-26T07:17:21.216Z,7.47
2018-03-26T07:19:17.105Z,7.47
2018-03-26T07:20:17.104Z,7.55
2018-03-26T07:22:11.068Z,7.41
2018-03-26T07:23:10.530Z,7.48
2018-03-26T07:25:06.445Z,7.51
2018-03-26T07:26:06.450Z,7.55
2018-03-26T07:28:00.929Z,7.51
2018-03-26T07:29:02.329Z,7.56
2018-03-26T07:30:56.848Z,7.64
2018-03-26T07:31:56.809Z,7.56
2018-03-26T07:33:51.245Z,7.73
2018-03-26T07:34:51.232Z,7.64
2018-03-26T07:36:46.199Z,7.61
2018-03-26T07:37:45.656Z,7.51
2018-03-26T07:39:40.609Z,7.51
2018-03-26T07:40:40.087Z,7.51
2018-03-26T07:42:35.035Z,7.51
2018-03-26T07:43:34.511Z,7.49
2018-03-26T07:45:28.948Z,7.51
2018-03-26T07:46:28.946Z,7.45
2018-03-26T07:48:22.422Z,7.52
2018-03-26T07:49:22.347Z,7.56
2018-03-26T07:51:15.785Z,7.51
2018-03-26T07:52:16.293Z,7.56
2018-03-26T07:54:10.237Z,7.64
2018-03-26T07:55:10.724Z,7.61
2018-03-26T07:57:04.673Z,7.54
2018-03-26T07:58:04.638Z,7.52
2018-03-26T07:59:59.103Z,7.68
2018-03-26T08:00:59.071Z,7.58
2018-03-26T08:02:53.519Z,7.55
2018-03-26T08:03:54.023Z,7.48
2018-03-26T08:05:47.978Z,7.45
2018-03-26T08:06:48.465Z,7.36
2018-03-26T08:08:43.898Z,7.31
2018-03-26T08:09:43.882Z,7.21
2018-03-26T08:11:40.792Z,7.15
2018-03-26T08:12:40.283Z,7.15
2018-03-26T08:14:34.182Z,7.30
2018-03-26T08:15:34.186Z,7.29
2018-03-26T08:17:27.627Z,7.47
2018-03-26T08:18:27.620Z,7.45
2018-03-26T08:20:21.062Z,7.49
2018-03-26T08:21:21.059Z,7.67
2018-03-26T08:23:16.010Z,7.64
2018-03-26T08:24:15.478Z,7.63
2018-03-26T08:26:09.935Z,7.48
2018-03-26T08:27:10.424Z,7.54
2018-03-26T08:29:04.929Z,7.68
2018-03-26T08:30:04.319Z,7.75
2018-03-26T08:32:01.274Z,7.83
2018-03-26T08:33:00.273Z,7.83
2018-03-26T08:34:55.221Z,7.80
2018-03-26T08:35:55.212Z,7.70
2018-03-26T08:37:50.678Z,7.73
2018-03-26T08:38:50.651Z,7.83
2018-03-26T08:40:45.109Z,7.75
2018-03-26T08:41:45.080Z,7.75
2018-03-26T08:43:39.545Z,7.74
2018-03-26T08:44:40.051Z,7.85
2018-03-26T08:46:33.946Z,7.92
2018-03-26T08:47:33.936Z,8.09
2018-03-26T08:49:30.890Z,8.26
2018-03-26T08:50:29.886Z,8.24
2018-03-26T08:52:25.823Z,8.24
2018-03-26T08:53:25.821Z,8.24
2018-03-26T08:55:21.774Z,8.24
2018-03-26T08:56:21.823Z,8.25
2018-03-26T08:58:16.725Z,8.25
2018-03-26T08:59:16.269Z,8.19
2018-03-26T09:01:10.640Z,8.28
2018-03-26T09:02:10.628Z,8.29
2018-03-26T09:04:05.113Z,8.31
2018-03-26T09:05:05.085Z,8.31
2018-03-26T09:06:59.561Z,8.29
2018-03-26T09:07:59.512Z,8.49
2018-03-26T09:09:54.451Z,8.32
2018-03-26T09:10:54.456Z,8.32
2018-03-26T09:12:49.398Z,8.36
2018-03-26T09:13:48.378Z,8.47
2018-03-26T09:15:43.337Z,8.60
2018-03-26T09:16:43.337Z,8.54
2018-03-26T09:18:38.267Z,8.69
2018-03-26T09:19:37.218Z,8.67
2018-03-26T09:21:31.654Z,8.85
2018-03-26T09:22:30.638Z,8.86
2018-03-26T09:24:24.075Z,9.00
2018-03-26T09:25:24.078Z,8.90
2018-03-26T09:27:18.513Z,9.17
2018-03-26T09:28:20.021Z,9.09
2018-03-26T09:30:14.398Z,9.08
2018-03-26T09:31:12.968Z,9.00
2018-03-26T09:33:07.901Z,9.11
2018-03-26T09:34:07.896Z,9.27
2018-03-26T09:36:01.831Z,9.19
2018-03-26T09:37:01.824Z,9.14
2018-03-26T09:38:57.749Z,9.37
2018-03-26T09:39:57.721Z,9.47
2018-03-26T09:41:52.182Z,9.48
2018-03-26T09:42:51.158Z,9.52
2018-03-26T09:44:45.585Z,9.52
2018-03-26T09:45:45.585Z,9.53
2018-03-26T09:47:41.544Z,9.59
2018-03-26T09:48:40.011Z,9.71
2018-03-26T09:50:34.974Z,9.56
2018-03-26T09:51:34.435Z,9.57
2018-03-26T09:53:30.415Z,9.75
2018-03-26T09:54:30.367Z,9.82
2018-03-26T09:56:23.793Z,9.99
2018-03-26T09:57:23.804Z,10.05
2018-03-26T09:59:18.758Z,10.00
2018-03-26T10:00:18.750Z,10.02
2018-03-26T10:02:14.656Z,10.07
2018-03-26T10:03:14.131Z,10.15
2018-03-26T10:05:08.573Z,10.21
2018-03-26T10:06:08.574Z,10.23
2018-03-26T10:08:03.047Z,10.20
2018-03-26T10:09:03.026Z,10.25
2018-03-26T10:10:56.491Z,10.33
2018-03-26T10:11:56.473Z,10.29
2018-03-26T10:13:50.884Z,10.46
2018-03-26T10:14:50.879Z,10.47
2018-03-26T10:16:44.828Z,10.54
2018-03-26T10:17:44.829Z,10.58
2018-03-26T10:19:38.765Z,10.49
2018-03-26T10:20:38.739Z,10.42
2018-03-26T10:22:34.682Z,10.33
2018-03-26T10:23:34.691Z,10.38
2018-03-26T10:25:29.129Z,10.41
2018-03-26T10:26:29.120Z,10.61
2018-03-26T10:28:23.529Z,10.84
2018-03-26T10:29:24.075Z,10.91
2018-03-26T10:31:17.985Z,11.20
2018-03-26T10:32:17.949Z,11.21
2018-03-26T10:34:12.911Z,11.10
2018-03-26T10:35:12.390Z,11.09
2018-03-26T10:37:05.899Z,11.05
2018-03-26T10:38:06.846Z,11.10
2018-03-26T10:40:01.311Z,11.34
2018-03-26T10:41:00.291Z,11.34
2018-03-26T10:42:54.726Z,11.39
2018-03-26T10:43:54.732Z,11.35
2018-03-26T10:45:49.209Z,11.34
2018-03-26T10:46:49.191Z,11.39
2018-03-26T10:48:44.635Z,11.42
2018-03-26T10:49:43.604Z,11.42
2018-03-26T10:51:37.553Z,11.27
2018-03-26T10:52:37.045Z,11.00
2018-03-26T10:54:31.493Z,11.06
2018-03-26T10:55:31.490Z,11.21
2018-03-26T10:57:26.446Z,11.26
2018-03-26T10:58:25.940Z,11.31
2018-03-26T11:00:20.931Z,11.26
2018-03-26T11:01:19.379Z,11.09
2018-03-26T11:03:12.799Z,11.06
2018-03-26T11:04:12.808Z,11.09
2018-03-26T11:06:07.265Z,11.16
2018-03-26T11:07:07.762Z,11.16
2018-03-26T11:09:04.200Z,11.12
2018-03-26T11:10:03.140Z,11.10
2018-03-26T11:11:58.605Z,11.21
2018-03-26T11:12:57.622Z,11.18
2018-03-26T11:14:51.074Z,11.27
2018-03-26T11:15:51.555Z,11.23
2018-03-26T11:17:45.999Z,11.21
2018-03-26T11:18:45.474Z,11.24
2018-03-26T11:20:42.425Z,11.26
2018-03-26T11:21:40.423Z,11.41
2018-03-26T11:23:35.405Z,11.41
2018-03-26T11:24:34.387Z,11.57
2018-03-26T11:26:28.853Z,11.56
2018-03-26T11:27:28.807Z,11.48
2018-03-26T11:29:22.246Z,11.61
2018-03-26T11:30:22.247Z,11.70
2018-03-26T11:32:16.689Z,11.76
2018-03-26T11:33:16.679Z,11.85
2018-03-26T11:35:10.137Z,11.82
2018-03-26T11:36:10.114Z,11.81
2018-03-26T11:38:03.567Z,11.84
2018-03-26T11:39:03.564Z,11.91
2018-03-26T11:40:57.987Z,11.98
2018-03-26T11:41:58.002Z,11.76
2018-03-26T11:43:53.974Z,11.88
2018-03-26T11:44:53.957Z,11.89
2018-03-26T11:46:47.408Z,12.07
2018-03-26T11:47:47.904Z,12.15
2018-03-26T11:49:40.887Z,11.98
2018-03-26T11:50:40.836Z,12.00
2018-03-26T11:52:35.790Z,12.13
2018-03-26T11:53:35.279Z,12.15
2018-03-26T11:55:29.713Z,12.03
2018-03-26T11:56:31.223Z,12.05
2018-03-26T11:58:24.142Z,11.97
2018-03-26T11:59:24.129Z,12.18
2018-03-26T12:01:19.090Z,12.10
2018-03-26T12:02:18.562Z,12.18
2018-03-26T12:04:14.520Z,12.18
2018-03-26T12:05:14.529Z,12.15
2018-03-26T12:07:08.974Z,11.94
2018-03-26T12:08:08.970Z,11.84
2018-03-26T12:10:03.410Z,11.97
2018-03-26T12:11:03.913Z,12.07
2018-03-26T12:12:58.859Z,11.86
2018-03-26T12:13:57.840Z,11.88
2018-03-26T12:15:52.794Z,12.18
2018-03-26T12:16:52.283Z,12.11
2018-03-26T12:18:47.250Z,12.10
2018-03-26T12:19:46.726Z,12.03
2018-03-26T12:21:42.640Z,12.18
2018-03-26T12:22:42.653Z,12.16
2018-03-26T12:24:37.613Z,12.11
2018-03-26T12:25:37.605Z,12.22
2018-03-26T12:27:32.046Z,12.18
2018-03-26T12:28:32.045Z,12.10
2018-03-26T12:30:24.967Z,12.16
2018-03-26T12:31:24.965Z,12.28
2018-03-26T12:33:19.453Z,12.26
2018-03-26T12:34:19.926Z,12.34
2018-03-26T12:36:14.885Z,12.58
2018-03-26T12:37:14.372Z,12.55
2018-03-26T12:39:10.316Z,12.61
2018-03-26T12:40:09.815Z,12.58
2018-03-26T12:42:02.741Z,12.37
2018-03-26T12:43:03.227Z,12.53
2018-03-26T12:44:56.174Z,12.37
2018-03-26T12:45:56.164Z,12.52
2018-03-26T12:47:50.618Z,12.71
2018-03-26T12:48:50.613Z,12.77
2018-03-26T12:50:44.076Z,12.71
2018-03-26T12:51:44.058Z,12.78
2018-03-26T12:53:38.543Z,12.95
2018-03-26T12:54:38.502Z,12.92
2018-03-26T12:56:35.497Z,12.91
2018-03-26T12:57:34.968Z,12.86
2018-03-26T12:59:28.426Z,12.66
2018-03-26T13:00:27.905Z,12.53
2018-03-26T13:02:22.364Z,12.65
2018-03-26T13:03:21.495Z,12.59
2018-03-26T13:05:15.941Z,12.70
2018-03-26T13:06:16.446Z,12.61
2018-03-26T13:08:09.386Z,12.74
2018-03-26T13:09:09.908Z,12.88
2018-03-26T13:11:03.808Z,12.77
2018-03-26T13:12:03.823Z,12.76
2018-03-26T13:13:57.770Z,12.76
2018-03-26T13:14:57.284Z,12.66
2018-03-26T13:16:51.647Z,12.70
2018-03-26T13:17:50.703Z,12.74
2018-03-26T13:19:44.139Z,12.88
2018-03-26T13:20:44.146Z,12.80
2018-03-26T13:22:38.599Z,12.89
2018-03-26T13:23:39.112Z,12.70
2018-03-26T13:25:33.020Z,12.94
2018-03-26T13:26:33.047Z,12.89
2018-03-26T13:28:27.442Z,12.91
2018-03-26T13:29:27.433Z,12.65
2018-03-26T13:31:20.862Z,12.83
2018-03-26T13:32:20.880Z,12.96
2018-03-26T13:34:14.333Z,12.69
2018-03-26T13:35:14.333Z,12.71
2018-03-26T13:37:08.760Z,12.88
2018-03-26T13:38:08.757Z,12.69
2018-03-26T13:40:02.212Z,12.56
2018-03-26T13:41:02.206Z,12.56
2018-03-26T13:42:56.638Z,12.63
2018-03-26T13:43:57.156Z,12.71
2018-03-26T13:45:53.097Z,12.66
2018-03-26T13:46:51.594Z,12.66
2018-03-26T13:48:46.036Z,12.65
2018-03-26T13:49:46.046Z,12.69
2018-03-26T13:51:39.950Z,12.66
2018-03-26T13:52:39.963Z,12.62
2018-03-26T13:54:33.909Z,12.56
2018-03-26T13:55:33.396Z,12.51
2018-03-26T13:57:27.370Z,12.45
2018-03-26T13:58:26.846Z,12.48
2018-03-26T14:00:21.798Z,12.56
2018-03-26T14:01:21.284Z,12.55
2018-03-26T14:03:14.719Z,12.61
2018-03-26T14:04:14.725Z,12.52
2018-03-26T14:06:09.673Z,12.48
2018-03-26T14:07:09.153Z,12.45
2018-03-26T14:09:02.564Z,12.52
2018-03-26T14:10:03.537Z,12.51
2018-03-26T14:11:56.008Z,12.56
2018-03-26T14:12:56.016Z,12.53
2018-03-26T14:14:50.494Z,12.62
2018-03-26T14:15:50.471Z,12.53
2018-03-26T14:17:44.918Z,12.56
2018-03-26T14:18:45.437Z,12.62
2018-03-26T14:20:38.882Z,12.84
2018-03-26T14:21:38.376Z,12.73
2018-03-26T14:23:31.797Z,12.71
2018-03-26T14:24:31.811Z,12.63
2018-03-26T14:26:26.772Z,12.59
2018-03-26T14:27:26.247Z,12.56
2018-03-26T14:29:21.200Z,12.41
2018-03-26T14:30:20.685Z,12.43
2018-03-26T14:32:15.118Z,12.31
2018-03-26T14:33:15.625Z,12.22
2018-03-26T14:35:08.626Z,12.26
2018-03-26T14:36:08.569Z,12.48
2018-03-26T14:38:05.514Z,12.26
2018-03-26T14:39:04.522Z,12.43
2018-03-26T14:40:58.944Z,12.45
2018-03-26T14:41:58.945Z,12.31
2018-03-26T14:43:54.405Z,12.33
2018-03-26T14:44:53.899Z,12.22
2018-03-26T14:46:48.338Z,12.22
2018-03-26T14:47:47.822Z,11.95
2018-03-26T14:49:42.788Z,11.88
2018-03-26T14:50:42.251Z,11.86
2018-03-26T14:52:35.720Z,11.89
2018-03-26T14:53:35.693Z,11.88
2018-03-26T14:55:30.698Z,11.82
2018-03-26T14:56:30.147Z,12.00
2018-03-26T14:58:24.618Z,11.95
2018-03-26T14:59:25.114Z,12.01
2018-03-26T15:01:19.002Z,12.10
2018-03-26T15:02:19.028Z,12.16
2018-03-26T15:04:12.955Z,12.29
2018-03-26T15:05:12.453Z,12.33
2018-03-26T15:07:06.890Z,12.28
2018-03-26T15:08:06.878Z,12.23
2018-03-26T15:10:00.343Z,12.22
2018-03-26T15:11:00.322Z,12.29
2018-03-26T15:12:54.268Z,12.29
2018-03-26T15:13:54.285Z,12.25
2018-03-26T15:15:48.182Z,12.20
2018-03-26T15:16:48.187Z,12.22
2018-03-26T15:18:42.607Z,12.20
2018-03-26T15:19:42.602Z,12.34
2018-03-26T15:21:37.054Z,12.51
2018-03-26T15:22:37.051Z,12.58
2018-03-26T15:24:31.984Z,12.45
2018-03-26T15:25:31.986Z,12.53
2018-03-26T15:27:26.912Z,12.65
2018-03-26T15:28:25.918Z,12.58
2018-03-26T15:30:20.876Z,12.62
2018-03-26T15:31:20.377Z,12.65
2018-03-26T15:33:13.802Z,12.80
2018-03-26T15:34:13.803Z,12.88
2018-03-26T15:36:08.751Z,12.77
2018-03-26T15:37:08.235Z,12.80
2018-03-26T15:39:02.659Z,12.78
2018-03-26T15:40:03.207Z,12.76
2018-03-26T15:41:56.094Z,12.92
2018-03-26T15:42:56.090Z,13.01
2018-03-26T15:44:50.561Z,12.86
2018-03-26T15:45:50.044Z,12.88
2018-03-26T15:47:44.004Z,12.83
2018-03-26T15:48:44.487Z,12.66
2018-03-26T15:50:37.465Z,12.65
2018-03-26T15:51:37.447Z,12.69
2018-03-26T15:53:30.918Z,12.62
2018-03-26T15:54:30.882Z,12.70
2018-03-26T15:56:25.339Z,12.62
2018-03-26T15:57:25.357Z,12.55
2018-03-26T15:59:19.800Z,12.61
2018-03-26T16:00:19.780Z,12.52
2018-03-26T16:02:15.776Z,12.55
2018-03-26T16:03:15.741Z,12.55
2018-03-26T16:05:08.695Z,12.66
2018-03-26T16:06:08.682Z,12.65
2018-03-26T16:08:02.116Z,12.56
2018-03-26T16:09:02.129Z,12.58
2018-03-26T16:10:55.566Z,12.45
2018-03-26T16:11:56.087Z,12.36
2018-03-26T16:13:50.046Z,12.22
2018-03-26T16:14:50.037Z,12.16
2018-03-26T16:16:44.504Z,12.08
2018-03-26T16:17:44.490Z,12.01
2018-03-26T16:19:39.452Z,12.00
2018-03-26T16:20:38.927Z,11.95
2018-03-26T16:22:33.411Z,12.07
2018-03-26T16:23:33.886Z,12.03
2018-03-26T16:25:28.328Z,11.97
2018-03-26T16:26:27.811Z,11.91
2018-03-26T16:28:21.232Z,11.95
2018-03-26T16:29:21.223Z,11.91
2018-03-26T16:31:15.690Z,11.82
2018-03-26T16:32:15.681Z,11.85
2018-03-26T16:34:10.618Z,11.76
2018-03-26T16:35:10.120Z,11.70
2018-03-26T16:37:05.078Z,11.73
2018-03-26T16:38:05.070Z,11.78
2018-03-26T16:39:59.504Z,11.76
2018-03-26T16:40:59.506Z,11.71
2018-03-26T16:42:52.456Z,11.88
2018-03-26T16:43:52.964Z,11.82
2018-03-26T16:45:46.892Z,11.82
2018-03-26T16:46:46.871Z,11.91
2018-03-26T16:48:40.294Z,11.88
2018-03-26T16:49:40.825Z,11.75
2018-03-26T16:51:35.738Z,11.70
2018-03-26T16:52:34.749Z,11.85
2018-03-26T16:54:28.683Z,11.82
2018-03-26T16:55:28.174Z,11.76
2018-03-26T16:57:22.198Z,11.76
2018-03-26T16:58:22.134Z,11.71
2018-03-26T17:00:15.055Z,11.61
2018-03-26T17:01:15.052Z,11.52
2018-03-26T17:03:11.041Z,11.51
2018-03-26T17:04:10.984Z,11.57
2018-03-26T17:06:05.461Z,11.51
2018-03-26T17:07:05.461Z,11.46
2018-03-26T17:09:00.417Z,11.48
2018-03-26T17:10:00.398Z,11.46
2018-03-26T17:11:54.330Z,11.39
2018-03-26T17:12:54.305Z,11.35
2018-03-26T17:14:48.761Z,11.31
2018-03-26T17:15:49.256Z,11.38
2018-03-26T17:17:46.711Z,11.42
2018-03-26T17:18:45.178Z,11.33
2018-03-26T17:20:39.636Z,11.31
2018-03-26T17:21:39.123Z,11.24
2018-03-26T17:23:34.505Z,11.26
2018-03-26T17:24:33.574Z,11.27
2018-03-26T17:26:29.000Z,11.20
2018-03-26T17:27:28.006Z,11.28
2018-03-26T17:29:22.483Z,11.24
2018-03-26T17:30:22.461Z,11.27
2018-03-26T17:32:16.891Z,11.26
2018-03-26T17:33:16.879Z,11.21
2018-03-26T17:35:10.355Z,11.21
2018-03-26T17:36:10.318Z,11.23
2018-03-26T17:38:03.800Z,11.13
2018-03-26T17:39:03.763Z,11.09
2018-03-26T17:40:58.246Z,11.08
2018-03-26T17:41:58.211Z,11.10
2018-03-26T17:43:51.626Z,11.06
2018-03-26T17:44:52.137Z,11.02
2018-03-26T17:46:46.108Z,11.06
2018-03-26T17:47:46.074Z,11.00
2018-03-26T17:49:42.063Z,11.00
2018-03-26T17:50:42.542Z,11.03
2018-03-26T17:52:35.455Z,11.00
2018-03-26T17:53:35.432Z,11.03
2018-03-26T17:55:28.899Z,11.10
2018-03-26T17:56:28.883Z,11.05
2018-03-26T17:58:23.360Z,11.05
2018-03-26T17:59:23.296Z,11.05
2018-03-26T18:01:18.735Z,10.98
2018-03-26T18:02:17.724Z,11.05
2018-03-26T18:04:11.673Z,11.02
2018-03-26T18:05:11.160Z,10.91
2018-03-26T18:07:05.627Z,10.88
2018-03-26T18:08:06.545Z,10.90
2018-03-26T18:10:00.634Z,10.79
2018-03-26T18:11:00.571Z,10.79
2018-03-26T18:12:54.003Z,10.70
2018-03-26T18:13:53.493Z,10.76
2018-03-26T18:15:48.432Z,10.73
2018-03-26T18:16:47.933Z,10.75
2018-03-26T18:18:41.358Z,10.79
2018-03-26T18:19:41.368Z,10.80
2018-03-26T18:21:36.323Z,10.88
2018-03-26T18:22:35.777Z,10.90
2018-03-26T18:24:30.731Z,10.85
2018-03-26T18:25:30.226Z,10.92
2018-03-26T18:27:29.178Z,10.91
2018-03-26T18:28:28.283Z,10.84
2018-03-26T18:30:24.220Z,10.94
2018-03-26T18:31:23.274Z,10.85
2018-03-26T18:33:16.168Z,10.88
2018-03-26T18:34:16.142Z,10.87
2018-03-26T18:36:11.093Z,10.90
2018-03-26T18:37:10.600Z,10.85
2018-03-26T18:39:05.551Z,10.90
2018-03-26T18:40:04.987Z,10.90
2018-03-26T18:41:59.934Z,10.91
2018-03-26T18:43:00.867Z,10.80
2018-03-26T18:44:53.910Z,10.83
2018-03-26T18:45:54.389Z,10.84
2018-03-26T18:47:48.316Z,10.80
2018-03-26T18:48:48.822Z,10.72
2018-03-26T18:50:43.271Z,10.75
2018-03-26T18:51:42.750Z,10.65
2018-03-26T18:53:36.696Z,10.67
2018-03-26T18:54:36.186Z,10.58
2018-03-26T18:56:30.614Z,10.58
2018-03-26T18:57:30.611Z,10.57
2018-03-26T18:59:25.590Z,10.51
2018-03-26T19:00:25.056Z,10.36
2018-03-26T19:02:19.997Z,10.49